sensor_id;sensor_type;location;lat;lon;timestamp;P1;durP1;ratioP1;P2;durP2;ratioP2
17414;SDS011;8825;48.086;16.426;2024-02-23T00:01:08;41.00;;;39.10;;
17414;SDS011;8825;48.086;16.426;2024-02-23T00:03:37;58.73;;;56.10;;
17414;SDS011;8825;48.086;16.426;2024-02-23T00:06:05;51.33;;;49.03;;
17414;SDS011;8825;48.086;16.426;2024-02-23T00:08:34;56.20;;;53.73;;
17414;SDS011;8825;48.086;16.426;2024-02-23T00:11:03;66.40;;;63.57;;
17414;SDS011;8825;48.086;16.426;2024-02-23T00:13:31;63.37;;;60.67;;
17414;SDS011;8825;48.086;16.426;2024-02-23T00:15:59;86.57;;;83.07;;
17414;SDS011;8825;48.086;16.426;2024-02-23T00:18:26;85.33;;;81.80;;
17414;SDS011;8825;48.086;16.426;2024-02-23T00:20:54;65.33;;;62.53;;
17414;SDS011;8825;48.086;16.426;2024-02-23T00:23:22;68.50;;;65.60;;
17414;SDS011;8825;48.086;16.426;2024-02-23T00:25:50;59.47;;;56.93;;
17414;SDS011;8825;48.086;16.426;2024-02-23T00:28:17;44.87;;;42.80;;
17414;SDS011;8825;48.086;16.426;2024-02-23T00:30:45;57.63;;;54.73;;
17414;SDS011;8825;48.086;16.426;2024-02-23T00:33:12;47.83;;;45.37;;
17414;SDS011;8825;48.086;16.426;2024-02-23T00:35:40;53.00;;;50.40;;
17414;SDS011;8825;48.086;16.426;2024-02-23T00:38:08;48.20;;;45.80;;
17414;SDS011;8825;48.086;16.426;2024-02-23T00:40:35;41.60;;;39.37;;
17414;SDS011;8825;48.086;16.426;2024-02-23T00:43:04;50.83;;;48.30;;
17414;SDS011;8825;48.086;16.426;2024-02-23T00:45:31;72.27;;;69.03;;
17414;SDS011;8825;48.086;16.426;2024-02-23T00:47:59;76.17;;;72.77;;
17414;SDS011;8825;48.086;16.426;2024-02-23T00:50:27;77.87;;;74.50;;
17414;SDS011;8825;48.086;16.426;2024-02-23T00:52:54;124.40;;;119.30;;
17414;SDS011;8825;48.086;16.426;2024-02-23T00:55:22;66.87;;;63.93;;
17414;SDS011;8825;48.086;16.426;2024-02-23T00:57:51;56.47;;;53.77;;
17414;SDS011;8825;48.086;16.426;2024-02-23T01:00:18;71.80;;;68.67;;
17414;SDS011;8825;48.086;16.426;2024-02-23T01:02:46;79.33;;;75.83;;
17414;SDS011;8825;48.086;16.426;2024-02-23T01:05:13;73.47;;;70.17;;
17414;SDS011;8825;48.086;16.426;2024-02-23T01:07:41;68.67;;;65.43;;
17414;SDS011;8825;48.086;16.426;2024-02-23T01:10:08;88.57;;;84.67;;
17414;SDS011;8825;48.086;16.426;2024-02-23T01:12:36;114.20;;;109.53;;
17414;SDS011;8825;48.086;16.426;2024-02-23T01:15:04;79.73;;;76.03;;
17414;SDS011;8825;48.086;16.426;2024-02-23T01:17:32;87.20;;;83.43;;
17414;SDS011;8825;48.086;16.426;2024-02-23T01:19:59;101.50;;;97.13;;
17414;SDS011;8825;48.086;16.426;2024-02-23T01:22:27;99.20;;;94.93;;
17414;SDS011;8825;48.086;16.426;2024-02-23T01:24:54;110.27;;;105.67;;
17414;SDS011;8825;48.086;16.426;2024-02-23T01:27:22;78.47;;;75.00;;
17414;SDS011;8825;48.086;16.426;2024-02-23T01:29:49;96.57;;;92.03;;
17414;SDS011;8825;48.086;16.426;2024-02-23T01:32:17;91.90;;;88.00;;
17414;SDS011;8825;48.086;16.426;2024-02-23T01:34:44;98.27;;;94.20;;
17414;SDS011;8825;48.086;16.426;2024-02-23T01:37:12;89.10;;;85.37;;
17414;SDS011;8825;48.086;16.426;2024-02-23T01:39:40;86.97;;;83.30;;
17414;SDS011;8825;48.086;16.426;2024-02-23T01:42:08;91.23;;;87.33;;
17414;SDS011;8825;48.086;16.426;2024-02-23T01:44:35;100.23;;;95.90;;
17414;SDS011;8825;48.086;16.426;2024-02-23T01:47:03;84.73;;;81.13;;
17414;SDS011;8825;48.086;16.426;2024-02-23T01:49:30;92.00;;;88.07;;
17414;SDS011;8825;48.086;16.426;2024-02-23T01:52:04;78.80;;;75.30;;
17414;SDS011;8825;48.086;16.426;2024-02-23T01:54:29;204.53;;;195.60;;
17414;SDS011;8825;48.086;16.426;2024-02-23T01:56:57;222.37;;;212.63;;
17414;SDS011;8825;48.086;16.426;2024-02-23T01:59:26;210.47;;;201.37;;
17414;SDS011;8825;48.086;16.426;2024-02-23T02:01:54;163.93;;;156.83;;
17414;SDS011;8825;48.086;16.426;2024-02-23T02:04:22;116.07;;;111.07;;
17414;SDS011;8825;48.086;16.426;2024-02-23T02:06:49;93.97;;;89.87;;
17414;SDS011;8825;48.086;16.426;2024-02-23T02:09:17;199.27;;;190.93;;
17414;SDS011;8825;48.086;16.426;2024-02-23T02:11:48;158.80;;;152.20;;
17414;SDS011;8825;48.086;16.426;2024-02-23T02:14:16;121.23;;;116.10;;
17414;SDS011;8825;48.086;16.426;2024-02-23T02:16:44;123.37;;;118.10;;
17414;SDS011;8825;48.086;16.426;2024-02-23T02:19:12;144.10;;;138.03;;
17414;SDS011;8825;48.086;16.426;2024-02-23T02:21:40;98.00;;;93.60;;
17414;SDS011;8825;48.086;16.426;2024-02-23T02:24:08;160.40;;;153.43;;
17414;SDS011;8825;48.086;16.426;2024-02-23T02:26:36;155.83;;;148.93;;
17414;SDS011;8825;48.086;16.426;2024-02-23T02:29:04;136.60;;;130.87;;
17414;SDS011;8825;48.086;16.426;2024-02-23T02:31:32;128.07;;;122.73;;
17414;SDS011;8825;48.086;16.426;2024-02-23T02:34:01;146.80;;;140.70;;
17414;SDS011;8825;48.086;16.426;2024-02-23T02:36:29;134.00;;;128.40;;
17414;SDS011;8825;48.086;16.426;2024-02-23T02:38:57;130.60;;;125.17;;
17414;SDS011;8825;48.086;16.426;2024-02-23T02:41:25;118.70;;;113.70;;
17414;SDS011;8825;48.086;16.426;2024-02-23T02:43:56;79.33;;;75.83;;
17414;SDS011;8825;48.086;16.426;2024-02-23T02:46:24;56.40;;;53.67;;
17414;SDS011;8825;48.086;16.426;2024-02-23T02:48:51;82.90;;;78.97;;
17414;SDS011;8825;48.086;16.426;2024-02-23T02:51:19;88.67;;;84.77;;
17414;SDS011;8825;48.086;16.426;2024-02-23T02:53:47;113.70;;;108.77;;
17414;SDS011;8825;48.086;16.426;2024-02-23T02:56:14;105.80;;;101.13;;
17414;SDS011;8825;48.086;16.426;2024-02-23T02:58:42;104.00;;;99.37;;
17414;SDS011;8825;48.086;16.426;2024-02-23T03:01:09;106.77;;;102.17;;
17414;SDS011;8825;48.086;16.426;2024-02-23T03:03:37;101.97;;;97.60;;
17414;SDS011;8825;48.086;16.426;2024-02-23T03:06:05;83.00;;;79.20;;
17414;SDS011;8825;48.086;16.426;2024-02-23T03:08:33;85.10;;;81.10;;
17414;SDS011;8825;48.086;16.426;2024-02-23T03:11:00;80.80;;;77.07;;
17414;SDS011;8825;48.086;16.426;2024-02-23T03:13:28;74.67;;;71.17;;
17414;SDS011;8825;48.086;16.426;2024-02-23T03:15:57;63.43;;;60.43;;
17414;SDS011;8825;48.086;16.426;2024-02-23T03:18:25;62.97;;;59.90;;
17414;SDS011;8825;48.086;16.426;2024-02-23T03:20:54;80.67;;;76.93;;
17414;SDS011;8825;48.086;16.426;2024-02-23T03:23:22;94.83;;;90.60;;
17414;SDS011;8825;48.086;16.426;2024-02-23T03:25:49;90.17;;;86.10;;
17414;SDS011;8825;48.086;16.426;2024-02-23T03:28:17;66.13;;;62.77;;
17414;SDS011;8825;48.086;16.426;2024-02-23T03:30:44;75.90;;;72.23;;
17414;SDS011;8825;48.086;16.426;2024-02-23T03:33:12;71.10;;;67.53;;
17414;SDS011;8825;48.086;16.426;2024-02-23T03:35:39;183.87;;;175.97;;
17414;SDS011;8825;48.086;16.426;2024-02-23T03:38:07;176.30;;;168.60;;
17414;SDS011;8825;48.086;16.426;2024-02-23T03:40:34;158.83;;;151.90;;
17414;SDS011;8825;48.086;16.426;2024-02-23T03:43:02;126.47;;;120.77;;
17414;SDS011;8825;48.086;16.426;2024-02-23T03:45:31;142.03;;;135.57;;
17414;SDS011;8825;48.086;16.426;2024-02-23T03:47:59;145.03;;;138.80;;
17414;SDS011;8825;48.086;16.426;2024-02-23T03:50:28;113.57;;;108.53;;
17414;SDS011;8825;48.086;16.426;2024-02-23T03:52:56;132.67;;;126.63;;
17414;SDS011;8825;48.086;16.426;2024-02-23T03:55:24;177.90;;;170.50;;
17414;SDS011;8825;48.086;16.426;2024-02-23T03:57:51;130.80;;;124.80;;
17414;SDS011;8825;48.086;16.426;2024-02-23T04:00:19;145.33;;;139.07;;
17414;SDS011;8825;48.086;16.426;2024-02-23T04:02:48;115.53;;;110.20;;
17414;SDS011;8825;48.086;16.426;2024-02-23T04:05:16;114.40;;;109.17;;
17414;SDS011;8825;48.086;16.426;2024-02-23T04:07:44;110.27;;;105.30;;
17414;SDS011;8825;48.086;16.426;2024-02-23T04:10:12;107.33;;;102.43;;
17414;SDS011;8825;48.086;16.426;2024-02-23T04:12:42;97.67;;;93.20;;
17414;SDS011;8825;48.086;16.426;2024-02-23T04:15:09;145.90;;;139.53;;
17414;SDS011;8825;48.086;16.426;2024-02-23T04:17:37;129.00;;;123.10;;
17414;SDS011;8825;48.086;16.426;2024-02-23T04:20:07;89.70;;;85.50;;
17414;SDS011;8825;48.086;16.426;2024-02-23T04:22:36;130.80;;;125.30;;
17414;SDS011;8825;48.086;16.426;2024-02-23T04:25:04;75.70;;;72.43;;
17414;SDS011;8825;48.086;16.426;2024-02-23T04:27:32;88.67;;;84.90;;
17414;SDS011;8825;48.086;16.426;2024-02-23T04:29:59;86.97;;;83.33;;
17414;SDS011;8825;48.086;16.426;2024-02-23T04:32:27;83.63;;;79.97;;
17414;SDS011;8825;48.086;16.426;2024-02-23T04:34:55;77.90;;;74.60;;
17414;SDS011;8825;48.086;16.426;2024-02-23T04:37:22;103.47;;;99.27;;
17414;SDS011;8825;48.086;16.426;2024-02-23T04:39:50;96.30;;;92.27;;
17414;SDS011;8825;48.086;16.426;2024-02-23T04:42:17;114.27;;;109.60;;
17414;SDS011;8825;48.086;16.426;2024-02-23T04:44:45;97.80;;;93.80;;
17414;SDS011;8825;48.086;16.426;2024-02-23T04:47:12;125.47;;;120.30;;
17414;SDS011;8825;48.086;16.426;2024-02-23T04:49:40;114.17;;;109.37;;
17414;SDS011;8825;48.086;16.426;2024-02-23T04:52:07;86.37;;;82.87;;
17414;SDS011;8825;48.086;16.426;2024-02-23T04:54:35;79.90;;;76.67;;
17414;SDS011;8825;48.086;16.426;2024-02-23T04:57:02;92.40;;;88.67;;
17414;SDS011;8825;48.086;16.426;2024-02-23T04:59:30;136.03;;;130.43;;
17414;SDS011;8825;48.086;16.426;2024-02-23T05:01:58;135.30;;;130.03;;
17414;SDS011;8825;48.086;16.426;2024-02-23T05:04:25;89.80;;;86.27;;
17414;SDS011;8825;48.086;16.426;2024-02-23T05:06:54;82.10;;;78.83;;
17414;SDS011;8825;48.086;16.426;2024-02-23T05:09:21;94.70;;;90.97;;
17414;SDS011;8825;48.086;16.426;2024-02-23T05:11:49;92.43;;;88.67;;
17414;SDS011;8825;48.086;16.426;2024-02-23T05:14:16;80.90;;;77.70;;
17414;SDS011;8825;48.086;16.426;2024-02-23T05:16:44;134.47;;;129.07;;
17414;SDS011;8825;48.086;16.426;2024-02-23T05:19:11;117.20;;;112.57;;
17414;SDS011;8825;48.086;16.426;2024-02-23T05:21:39;109.37;;;105.07;;
17414;SDS011;8825;48.086;16.426;2024-02-23T05:24:06;98.50;;;94.70;;
17414;SDS011;8825;48.086;16.426;2024-02-23T05:26:34;93.10;;;89.40;;
17414;SDS011;8825;48.086;16.426;2024-02-23T05:29:01;105.53;;;101.53;;
17414;SDS011;8825;48.086;16.426;2024-02-23T05:32:03;106.63;;;102.47;;
17414;SDS011;8825;48.086;16.426;2024-02-23T05:34:11;178.27;;;171.17;;
17414;SDS011;8825;48.086;16.426;2024-02-23T05:36:38;133.70;;;128.37;;
17414;SDS011;8825;48.086;16.426;2024-02-23T05:39:06;83.93;;;80.53;;
17414;SDS011;8825;48.086;16.426;2024-02-23T05:41:40;81.87;;;78.67;;
17414;SDS011;8825;48.086;16.426;2024-02-23T05:44:04;49.70;;;47.70;;
17414;SDS011;8825;48.086;16.426;2024-02-23T05:46:32;64.13;;;61.60;;
17414;SDS011;8825;48.086;16.426;2024-02-23T05:49:01;48.97;;;46.87;;
17414;SDS011;8825;48.086;16.426;2024-02-23T05:51:31;65.43;;;62.83;;
17414;SDS011;8825;48.086;16.426;2024-02-23T05:53:59;58.77;;;56.37;;
17414;SDS011;8825;48.086;16.426;2024-02-23T05:56:27;48.27;;;46.23;;
17414;SDS011;8825;48.086;16.426;2024-02-23T05:58:54;68.70;;;65.73;;
17414;SDS011;8825;48.086;16.426;2024-02-23T06:01:22;78.27;;;75.13;;
17414;SDS011;8825;48.086;16.426;2024-02-23T06:03:49;72.90;;;69.80;;
17414;SDS011;8825;48.086;16.426;2024-02-23T06:06:19;84.40;;;81.03;;
17414;SDS011;8825;48.086;16.426;2024-02-23T06:08:46;88.93;;;85.23;;
17414;SDS011;8825;48.086;16.426;2024-02-23T06:11:15;79.13;;;75.80;;
17414;SDS011;8825;48.086;16.426;2024-02-23T06:13:43;61.93;;;59.53;;
17414;SDS011;8825;48.086;16.426;2024-02-23T06:16:10;87.30;;;83.90;;
17414;SDS011;8825;48.086;16.426;2024-02-23T06:18:38;83.83;;;80.53;;
17414;SDS011;8825;48.086;16.426;2024-02-23T06:21:16;142.43;;;136.57;;
17414;SDS011;8825;48.086;16.426;2024-02-23T06:23:44;86.20;;;82.80;;
17414;SDS011;8825;48.086;16.426;2024-02-23T06:26:12;95.47;;;91.67;;
17414;SDS011;8825;48.086;16.426;2024-02-23T06:28:39;82.00;;;78.80;;
17414;SDS011;8825;48.086;16.426;2024-02-23T06:31:09;78.77;;;75.57;;
17414;SDS011;8825;48.086;16.426;2024-02-23T06:33:37;90.10;;;86.50;;
17414;SDS011;8825;48.086;16.426;2024-02-23T06:36:06;70.17;;;67.30;;
17414;SDS011;8825;48.086;16.426;2024-02-23T06:38:34;86.63;;;83.23;;
17414;SDS011;8825;48.086;16.426;2024-02-23T06:41:02;57.50;;;55.20;;
17414;SDS011;8825;48.086;16.426;2024-02-23T06:43:29;87.30;;;83.80;;
17414;SDS011;8825;48.086;16.426;2024-02-23T06:45:57;57.90;;;55.53;;
17414;SDS011;8825;48.086;16.426;2024-02-23T06:48:24;58.30;;;55.93;;
17414;SDS011;8825;48.086;16.426;2024-02-23T06:50:52;125.50;;;120.73;;
17414;SDS011;8825;48.086;16.426;2024-02-23T06:53:19;47.33;;;45.40;;
17414;SDS011;8825;48.086;16.426;2024-02-23T06:55:47;72.43;;;69.57;;
17414;SDS011;8825;48.086;16.426;2024-02-23T06:58:14;57.13;;;54.83;;
17414;SDS011;8825;48.086;16.426;2024-02-23T07:00:43;92.13;;;88.53;;
17414;SDS011;8825;48.086;16.426;2024-02-23T07:03:12;60.30;;;57.97;;
17414;SDS011;8825;48.086;16.426;2024-02-23T07:05:40;73.77;;;70.80;;
17414;SDS011;8825;48.086;16.426;2024-02-23T07:08:11;96.60;;;92.77;;
17414;SDS011;8825;48.086;16.426;2024-02-23T07:10:39;83.20;;;80.03;;
17414;SDS011;8825;48.086;16.426;2024-02-23T07:13:06;66.97;;;64.37;;
17414;SDS011;8825;48.086;16.426;2024-02-23T07:15:34;119.27;;;114.60;;
17414;SDS011;8825;48.086;16.426;2024-02-23T07:18:02;56.67;;;54.47;;
17414;SDS011;8825;48.086;16.426;2024-02-23T07:20:30;95.43;;;91.57;;
17414;SDS011;8825;48.086;16.426;2024-02-23T07:22:57;77.70;;;74.70;;
17414;SDS011;8825;48.086;16.426;2024-02-23T07:25:25;82.03;;;78.77;;
17414;SDS011;8825;48.086;16.426;2024-02-23T07:27:52;79.17;;;76.03;;
17414;SDS011;8825;48.086;16.426;2024-02-23T07:30:20;48.00;;;46.10;;
17414;SDS011;8825;48.086;16.426;2024-02-23T07:32:47;75.73;;;72.80;;
17414;SDS011;8825;48.086;16.426;2024-02-23T07:35:15;65.07;;;62.40;;
17414;SDS011;8825;48.086;16.426;2024-02-23T07:37:42;57.40;;;55.10;;
17414;SDS011;8825;48.086;16.426;2024-02-23T07:40:10;95.73;;;91.93;;
17414;SDS011;8825;48.086;16.426;2024-02-23T07:42:38;60.90;;;58.50;;
17414;SDS011;8825;48.086;16.426;2024-02-23T07:45:06;72.57;;;69.70;;
17414;SDS011;8825;48.086;16.426;2024-02-23T07:47:35;121.27;;;116.53;;
17414;SDS011;8825;48.086;16.426;2024-02-23T07:50:03;71.13;;;68.30;;
17414;SDS011;8825;48.086;16.426;2024-02-23T07:52:31;123.00;;;118.30;;
17414;SDS011;8825;48.086;16.426;2024-02-23T07:54:59;119.13;;;114.53;;
17414;SDS011;8825;48.086;16.426;2024-02-23T07:57:28;111.27;;;106.87;;
17414;SDS011;8825;48.086;16.426;2024-02-23T07:59:57;80.13;;;76.93;;
17414;SDS011;8825;48.086;16.426;2024-02-23T08:02:24;81.40;;;78.10;;
17414;SDS011;8825;48.086;16.426;2024-02-23T08:04:52;68.53;;;65.80;;
17414;SDS011;8825;48.086;16.426;2024-02-23T08:07:20;86.97;;;83.47;;
17414;SDS011;8825;48.086;16.426;2024-02-23T08:09:48;92.80;;;89.17;;
17414;SDS011;8825;48.086;16.426;2024-02-23T08:12:16;114.07;;;109.53;;
17414;SDS011;8825;48.086;16.426;2024-02-23T08:14:43;130.90;;;125.33;;
17414;SDS011;8825;48.086;16.426;2024-02-23T08:17:12;85.40;;;81.97;;
17414;SDS011;8825;48.086;16.426;2024-02-23T08:19:40;149.17;;;143.07;;
17414;SDS011;8825;48.086;16.426;2024-02-23T08:22:07;137.33;;;131.83;;
17414;SDS011;8825;48.086;16.426;2024-02-23T08:24:35;94.97;;;91.27;;
17414;SDS011;8825;48.086;16.426;2024-02-23T08:27:02;108.97;;;104.60;;
17414;SDS011;8825;48.086;16.426;2024-02-23T08:29:30;158.67;;;152.43;;
17414;SDS011;8825;48.086;16.426;2024-02-23T08:31:58;128.73;;;123.70;;
17414;SDS011;8825;48.086;16.426;2024-02-23T08:34:26;92.90;;;89.03;;
17414;SDS011;8825;48.086;16.426;2024-02-23T08:36:53;116.93;;;112.17;;
17414;SDS011;8825;48.086;16.426;2024-02-23T08:39:21;117.87;;;113.27;;
17414;SDS011;8825;48.086;16.426;2024-02-23T08:41:48;107.83;;;103.43;;
17414;SDS011;8825;48.086;16.426;2024-02-23T08:44:17;143.33;;;137.20;;
17414;SDS011;8825;48.086;16.426;2024-02-23T08:46:44;97.37;;;93.37;;
17414;SDS011;8825;48.086;16.426;2024-02-23T08:49:12;81.77;;;78.37;;
17414;SDS011;8825;48.086;16.426;2024-02-23T08:51:40;77.17;;;74.17;;
17414;SDS011;8825;48.086;16.426;2024-02-23T08:54:07;67.27;;;64.67;;
17414;SDS011;8825;48.086;16.426;2024-02-23T08:56:38;78.03;;;74.90;;
17414;SDS011;8825;48.086;16.426;2024-02-23T08:59:08;59.00;;;56.63;;
17414;SDS011;8825;48.086;16.426;2024-02-23T09:01:36;54.80;;;52.60;;
17414;SDS011;8825;48.086;16.426;2024-02-23T09:04:03;55.93;;;53.73;;
17414;SDS011;8825;48.086;16.426;2024-02-23T09:06:31;34.40;;;33.03;;
17414;SDS011;8825;48.086;16.426;2024-02-23T09:09:01;35.30;;;33.80;;
17414;SDS011;8825;48.086;16.426;2024-02-23T09:11:29;29.63;;;28.23;;
17414;SDS011;8825;48.086;16.426;2024-02-23T09:13:56;42.47;;;40.73;;
17414;SDS011;8825;48.086;16.426;2024-02-23T09:16:24;37.90;;;36.37;;
17414;SDS011;8825;48.086;16.426;2024-02-23T09:18:52;35.47;;;33.97;;
17414;SDS011;8825;48.086;16.426;2024-02-23T09:21:19;30.67;;;29.30;;
17414;SDS011;8825;48.086;16.426;2024-02-23T09:23:47;50.77;;;48.63;;
17414;SDS011;8825;48.086;16.426;2024-02-23T09:26:14;40.57;;;38.57;;
17414;SDS011;8825;48.086;16.426;2024-02-23T09:28:43;38.37;;;36.77;;
17414;SDS011;8825;48.086;16.426;2024-02-23T09:31:11;55.67;;;53.43;;
17414;SDS011;8825;48.086;16.426;2024-02-23T09:33:38;46.13;;;44.17;;
17414;SDS011;8825;48.086;16.426;2024-02-23T09:36:06;41.97;;;40.27;;
17414;SDS011;8825;48.086;16.426;2024-02-23T09:38:35;32.43;;;31.03;;
17414;SDS011;8825;48.086;16.426;2024-02-23T09:41:03;33.37;;;31.87;;
17414;SDS011;8825;48.086;16.426;2024-02-23T09:43:32;42.03;;;40.23;;
17414;SDS011;8825;48.086;16.426;2024-02-23T09:46:00;43.67;;;41.87;;
17414;SDS011;8825;48.086;16.426;2024-02-23T09:48:28;55.63;;;53.33;;
17414;SDS011;8825;48.086;16.426;2024-02-23T09:50:59;39.57;;;37.87;;
17414;SDS011;8825;48.086;16.426;2024-02-23T09:53:28;46.37;;;44.43;;
17414;SDS011;8825;48.086;16.426;2024-02-23T09:55:55;61.40;;;58.90;;
17414;SDS011;8825;48.086;16.426;2024-02-23T09:58:25;64.50;;;61.80;;
17414;SDS011;8825;48.086;16.426;2024-02-23T10:00:55;59.00;;;56.57;;
17414;SDS011;8825;48.086;16.426;2024-02-23T10:03:28;44.63;;;42.77;;
17414;SDS011;8825;48.086;16.426;2024-02-23T10:05:59;59.37;;;57.00;;
17414;SDS011;8825;48.086;16.426;2024-02-23T10:08:30;64.77;;;61.97;;
17414;SDS011;8825;48.086;16.426;2024-02-23T10:10:58;71.90;;;69.10;;
17414;SDS011;8825;48.086;16.426;2024-02-23T10:13:29;43.70;;;41.83;;
17414;SDS011;8825;48.086;16.426;2024-02-23T10:15:56;41.10;;;39.23;;
17414;SDS011;8825;48.086;16.426;2024-02-23T10:18:24;51.50;;;49.20;;
17414;SDS011;8825;48.086;16.426;2024-02-23T10:20:52;47.20;;;45.27;;
17414;SDS011;8825;48.086;16.426;2024-02-23T10:23:20;91.17;;;87.53;;
17414;SDS011;8825;48.086;16.426;2024-02-23T10:25:48;54.77;;;52.57;;
17414;SDS011;8825;48.086;16.426;2024-02-23T10:28:15;67.87;;;65.13;;
17414;SDS011;8825;48.086;16.426;2024-02-23T10:30:46;43.60;;;41.10;;
17414;SDS011;8825;48.086;16.426;2024-02-23T10:33:15;140.57;;;120.53;;
17414;SDS011;8825;48.086;16.426;2024-02-23T10:35:45;51.13;;;48.30;;
17414;SDS011;8825;48.086;16.426;2024-02-23T10:38:14;74.90;;;71.90;;
17414;SDS011;8825;48.086;16.426;2024-02-23T10:40:44;39.33;;;37.63;;
17414;SDS011;8825;48.086;16.426;2024-02-23T10:43:15;50.83;;;48.80;;
17414;SDS011;8825;48.086;16.426;2024-02-23T10:45:44;74.43;;;71.53;;
17414;SDS011;8825;48.086;16.426;2024-02-23T10:48:13;36.47;;;34.90;;
17414;SDS011;8825;48.086;16.426;2024-02-23T10:50:42;63.80;;;61.30;;
17414;SDS011;8825;48.086;16.426;2024-02-23T10:53:10;61.37;;;58.90;;
17414;SDS011;8825;48.086;16.426;2024-02-23T10:55:38;51.27;;;49.17;;
17414;SDS011;8825;48.086;16.426;2024-02-23T10:58:06;48.73;;;46.77;;
17414;SDS011;8825;48.086;16.426;2024-02-23T11:00:36;50.60;;;48.57;;
17414;SDS011;8825;48.086;16.426;2024-02-23T11:03:04;60.17;;;57.77;;
17414;SDS011;8825;48.086;16.426;2024-02-23T11:05:33;61.03;;;58.53;;
17414;SDS011;8825;48.086;16.426;2024-02-23T11:08:01;43.73;;;42.00;;
17414;SDS011;8825;48.086;16.426;2024-02-23T11:10:29;73.97;;;71.03;;
17414;SDS011;8825;48.086;16.426;2024-02-23T11:13:01;63.13;;;60.37;;
17414;SDS011;8825;48.086;16.426;2024-02-23T11:15:29;75.37;;;72.27;;
17414;SDS011;8825;48.086;16.426;2024-02-23T11:17:59;54.00;;;51.87;;
17414;SDS011;8825;48.086;16.426;2024-02-23T11:20:52;82.20;;;78.73;;
17414;SDS011;8825;48.086;16.426;2024-02-23T11:23:12;70.83;;;67.70;;
17414;SDS011;8825;48.086;16.426;2024-02-23T11:25:34;85.30;;;81.57;;
17414;SDS011;8825;48.086;16.426;2024-02-23T11:28:02;72.23;;;69.13;;
17414;SDS011;8825;48.086;16.426;2024-02-23T11:30:31;65.37;;;62.70;;
17414;SDS011;8825;48.086;16.426;2024-02-23T11:32:59;92.50;;;88.43;;
17414;SDS011;8825;48.086;16.426;2024-02-23T11:35:27;87.23;;;83.63;;
17414;SDS011;8825;48.086;16.426;2024-02-23T11:37:55;63.87;;;61.23;;
17414;SDS011;8825;48.086;16.426;2024-02-23T11:40:25;71.77;;;68.50;;
17414;SDS011;8825;48.086;16.426;2024-02-23T11:42:58;57.83;;;55.30;;
17414;SDS011;8825;48.086;16.426;2024-02-23T11:45:23;49.73;;;47.57;;
17414;SDS011;8825;48.086;16.426;2024-02-23T11:47:51;91.77;;;88.03;;
17414;SDS011;8825;48.086;16.426;2024-02-23T11:50:19;73.60;;;70.50;;
17414;SDS011;8825;48.086;16.426;2024-02-23T11:52:46;71.10;;;68.10;;
17414;SDS011;8825;48.086;16.426;2024-02-23T11:55:20;70.63;;;67.53;;
17414;SDS011;8825;48.086;16.426;2024-02-23T11:57:48;58.03;;;55.53;;
17414;SDS011;8825;48.086;16.426;2024-02-23T12:00:16;45.50;;;43.67;;
17414;SDS011;8825;48.086;16.426;2024-02-23T12:02:45;79.00;;;75.73;;
17414;SDS011;8825;48.086;16.426;2024-02-23T12:05:14;49.40;;;47.37;;
17414;SDS011;8825;48.086;16.426;2024-02-23T12:07:42;71.27;;;68.43;;
17414;SDS011;8825;48.086;16.426;2024-02-23T12:10:10;74.80;;;71.90;;
17414;SDS011;8825;48.086;16.426;2024-02-23T12:12:38;89.43;;;85.87;;
17414;SDS011;8825;48.086;16.426;2024-02-23T12:15:06;65.97;;;63.30;;
17414;SDS011;8825;48.086;16.426;2024-02-23T12:17:37;69.20;;;66.37;;
17414;SDS011;8825;48.086;16.426;2024-02-23T12:20:06;79.67;;;76.40;;
17414;SDS011;8825;48.086;16.426;2024-02-23T12:22:35;91.27;;;87.47;;
17414;SDS011;8825;48.086;16.426;2024-02-23T12:25:02;78.57;;;75.43;;
17414;SDS011;8825;48.086;16.426;2024-02-23T12:27:30;68.93;;;66.07;;
17414;SDS011;8825;48.086;16.426;2024-02-23T12:29:57;67.23;;;64.47;;
17414;SDS011;8825;48.086;16.426;2024-02-23T12:32:25;77.53;;;74.27;;
17414;SDS011;8825;48.086;16.426;2024-02-23T12:34:53;94.10;;;90.23;;
17414;SDS011;8825;48.086;16.426;2024-02-23T12:37:20;102.57;;;98.10;;
17414;SDS011;8825;48.086;16.426;2024-02-23T12:39:49;99.53;;;95.47;;
17414;SDS011;8825;48.086;16.426;2024-02-23T12:42:17;48.13;;;46.13;;
17414;SDS011;8825;48.086;16.426;2024-02-23T12:44:45;62.00;;;59.33;;
17414;SDS011;8825;48.086;16.426;2024-02-23T12:47:13;53.30;;;51.13;;
17414;SDS011;8825;48.086;16.426;2024-02-23T12:49:40;49.43;;;47.43;;
17414;SDS011;8825;48.086;16.426;2024-02-23T12:52:08;94.87;;;91.07;;
17414;SDS011;8825;48.086;16.426;2024-02-23T12:54:36;68.63;;;65.93;;
17414;SDS011;8825;48.086;16.426;2024-02-23T12:57:03;61.80;;;59.20;;
17414;SDS011;8825;48.086;16.426;2024-02-23T12:59:31;77.27;;;74.17;;
17414;SDS011;8825;48.086;16.426;2024-02-23T13:01:58;45.00;;;43.13;;
17414;SDS011;8825;48.086;16.426;2024-02-23T13:04:26;38.93;;;37.03;;
17414;SDS011;8825;48.086;16.426;2024-02-23T13:06:53;64.43;;;61.80;;
17414;SDS011;8825;48.086;16.426;2024-02-23T13:09:22;45.27;;;43.40;;
17414;SDS011;8825;48.086;16.426;2024-02-23T13:11:49;55.57;;;53.27;;
17414;SDS011;8825;48.086;16.426;2024-02-23T13:14:17;54.27;;;51.63;;
17414;SDS011;8825;48.086;16.426;2024-02-23T13:16:44;115.10;;;110.70;;
17414;SDS011;8825;48.086;16.426;2024-02-23T13:19:12;123.97;;;119.23;;
17414;SDS011;8825;48.086;16.426;2024-02-23T13:21:39;102.07;;;98.20;;
17414;SDS011;8825;48.086;16.426;2024-02-23T13:24:07;97.67;;;93.87;;
17414;SDS011;8825;48.086;16.426;2024-02-23T13:26:34;108.30;;;104.03;;
17414;SDS011;8825;48.086;16.426;2024-02-23T13:29:02;77.83;;;74.70;;
17414;SDS011;8825;48.086;16.426;2024-02-23T13:31:30;115.27;;;110.67;;
17414;SDS011;8825;48.086;16.426;2024-02-23T13:33:57;93.10;;;89.40;;
17414;SDS011;8825;48.086;16.426;2024-02-23T13:36:25;116.17;;;111.50;;
17414;SDS011;8825;48.086;16.426;2024-02-23T13:38:52;168.73;;;162.10;;
17414;SDS011;8825;48.086;16.426;2024-02-23T13:41:20;107.53;;;103.13;;
17414;SDS011;8825;48.086;16.426;2024-02-23T13:43:47;79.23;;;75.97;;
17414;SDS011;8825;48.086;16.426;2024-02-23T13:46:15;83.10;;;79.70;;
17414;SDS011;8825;48.086;16.426;2024-02-23T13:48:42;79.37;;;76.17;;
17414;SDS011;8825;48.086;16.426;2024-02-23T13:51:10;79.00;;;75.73;;
17414;SDS011;8825;48.086;16.426;2024-02-23T13:53:37;105.60;;;101.13;;
17414;SDS011;8825;48.086;16.426;2024-02-23T13:56:05;101.43;;;97.23;;
17414;SDS011;8825;48.086;16.426;2024-02-23T13:58:33;116.40;;;111.67;;
17414;SDS011;8825;48.086;16.426;2024-02-23T14:01:01;108.43;;;104.03;;
17414;SDS011;8825;48.086;16.426;2024-02-23T14:03:28;119.90;;;115.00;;
17414;SDS011;8825;48.086;16.426;2024-02-23T14:05:56;112.37;;;107.83;;
17414;SDS011;8825;48.086;16.426;2024-02-23T14:08:24;118.33;;;113.57;;
17414;SDS011;8825;48.086;16.426;2024-02-23T14:10:51;137.03;;;131.33;;
17414;SDS011;8825;48.086;16.426;2024-02-23T14:13:19;83.23;;;79.93;;
17414;SDS011;8825;48.086;16.426;2024-02-23T14:15:47;66.97;;;64.07;;
17414;SDS011;8825;48.086;16.426;2024-02-23T14:18:14;64.73;;;62.03;;
17414;SDS011;8825;48.086;16.426;2024-02-23T14:20:42;68.03;;;65.03;;